Terminal Aerodrome Forecast
Issued by NWS St Louis, MO

Home | Current Version | Previous Version | Text Only | Print | Product List | Glossary On
Versions: 1 2 3 4 5 6 7 8 9 10 11 12 13 14 15 16 17 18 19 20 21
000
FTUS43 KLSX 230600 AAA
TAFCOU
TAF AMD
KCOU 230633Z 2307/2406 17012KT P6SM SCT015 BKN100
     FM231200 17010KT 5SM -SHRA SCT009 OVC015
     FM231600 15012KT 3SM -RA OVC007
     FM240300 29012G18KT P6SM SCT007 OVC012=

USA.gov is the U.S. government's official web portal to all federal, state and local government web resources and services.